sensor_id;sensor_type;location;lat;lon;timestamp;P1;durP1;ratioP1;P2;durP2;ratioP2
44098;SDS011;29762;50.086;14.364;2023-06-14T00:03:20;3.08;;;2.20;;
44098;SDS011;29762;50.086;14.364;2023-06-14T00:08:41;2.17;;;1.98;;
44098;SDS011;29762;50.086;14.364;2023-06-14T00:14:00;2.40;;;2.10;;
44098;SDS011;29762;50.086;14.364;2023-06-14T00:19:20;2.50;;;2.10;;
44098;SDS011;29762;50.086;14.364;2023-06-14T00:24:40;2.05;;;1.95;;
44098;SDS011;29762;50.086;14.364;2023-06-14T00:29:59;2.30;;;2.10;;
44098;SDS011;29762;50.086;14.364;2023-06-14T00:35:20;2.85;;;1.98;;
44098;SDS011;29762;50.086;14.364;2023-06-14T00:40:39;2.20;;;2.00;;
44098;SDS011;29762;50.086;14.364;2023-06-14T00:45:58;2.40;;;2.20;;
44098;SDS011;29762;50.086;14.364;2023-06-14T00:51:18;2.10;;;1.90;;
44098;SDS011;29762;50.086;14.364;2023-06-14T00:56:37;2.33;;;2.10;;
44098;SDS011;29762;50.086;14.364;2023-06-14T01:01:57;2.03;;;1.92;;
44098;SDS011;29762;50.086;14.364;2023-06-14T01:13:23;1.90;;;1.80;;
44098;SDS011;29762;50.086;14.364;2023-06-14T01:18:47;2.10;;;1.90;;
44098;SDS011;29762;50.086;14.364;2023-06-14T01:24:08;1.73;;;1.60;;
44098;SDS011;29762;50.086;14.364;2023-06-14T01:29:28;1.85;;;1.73;;
44098;SDS011;29762;50.086;14.364;2023-06-14T01:34:52;2.10;;;1.90;;
44098;SDS011;29762;50.086;14.364;2023-06-14T01:40:12;2.00;;;1.80;;
44098;SDS011;29762;50.086;14.364;2023-06-14T01:45:34;1.80;;;1.70;;
44098;SDS011;29762;50.086;14.364;2023-06-14T01:50:55;2.08;;;1.92;;
44098;SDS011;29762;50.086;14.364;2023-06-14T01:56:14;2.08;;;1.90;;
44098;SDS011;29762;50.086;14.364;2023-06-14T02:01:34;2.30;;;1.80;;
44098;SDS011;29762;50.086;14.364;2023-06-14T02:06:54;2.00;;;1.80;;
44098;SDS011;29762;50.086;14.364;2023-06-14T02:12:14;1.98;;;1.85;;
44098;SDS011;29762;50.086;14.364;2023-06-14T02:17:33;2.50;;;1.90;;
44098;SDS011;29762;50.086;14.364;2023-06-14T02:22:58;1.60;;;1.50;;
44098;SDS011;29762;50.086;14.364;2023-06-14T02:28:18;1.75;;;1.58;;
44098;SDS011;29762;50.086;14.364;2023-06-14T02:33:37;1.70;;;1.60;;
44098;SDS011;29762;50.086;14.364;2023-06-14T02:38:57;1.70;;;1.60;;
44098;SDS011;29762;50.086;14.364;2023-06-14T02:44:17;1.70;;;1.60;;
44098;SDS011;29762;50.086;14.364;2023-06-14T02:49:38;1.77;;;1.67;;
44098;SDS011;29762;50.086;14.364;2023-06-14T02:54:57;1.92;;;1.77;;
44098;SDS011;29762;50.086;14.364;2023-06-14T03:00:17;1.70;;;1.60;;
44098;SDS011;29762;50.086;14.364;2023-06-14T03:05:46;1.85;;;1.75;;
44098;SDS011;29762;50.086;14.364;2023-06-14T03:11:11;1.95;;;1.80;;
44098;SDS011;29762;50.086;14.364;2023-06-14T03:16:32;2.00;;;1.90;;
44098;SDS011;29762;50.086;14.364;2023-06-14T03:21:52;1.80;;;1.70;;
44098;SDS011;29762;50.086;14.364;2023-06-14T03:27:13;1.65;;;1.55;;
44098;SDS011;29762;50.086;14.364;2023-06-14T03:32:37;1.52;;;1.40;;
44098;SDS011;29762;50.086;14.364;2023-06-14T03:37:58;1.73;;;1.63;;
44098;SDS011;29762;50.086;14.364;2023-06-14T03:43:17;1.83;;;1.70;;
44098;SDS011;29762;50.086;14.364;2023-06-14T03:48:37;1.80;;;1.70;;
44098;SDS011;29762;50.086;14.364;2023-06-14T03:53:58;1.73;;;1.63;;
44098;SDS011;29762;50.086;14.364;2023-06-14T03:59:17;1.50;;;1.40;;
44098;SDS011;29762;50.086;14.364;2023-06-14T04:04:37;1.80;;;1.70;;
44098;SDS011;29762;50.086;14.364;2023-06-14T04:09:58;1.77;;;1.67;;
44098;SDS011;29762;50.086;14.364;2023-06-14T04:15:18;1.70;;;1.60;;
44098;SDS011;29762;50.086;14.364;2023-06-14T04:20:38;3.25;;;1.83;;
44098;SDS011;29762;50.086;14.364;2023-06-14T04:26:00;1.73;;;1.63;;
44098;SDS011;29762;50.086;14.364;2023-06-14T04:31:24;2.03;;;1.75;;
44098;SDS011;29762;50.086;14.364;2023-06-14T04:36:44;2.92;;;1.70;;
44098;SDS011;29762;50.086;14.364;2023-06-14T04:42:09;2.13;;;1.70;;
44098;SDS011;29762;50.086;14.364;2023-06-14T04:47:31;1.73;;;1.52;;
44098;SDS011;29762;50.086;14.364;2023-06-14T04:52:52;1.73;;;1.60;;
44098;SDS011;29762;50.086;14.364;2023-06-14T04:58:14;3.45;;;2.50;;
44098;SDS011;29762;50.086;14.364;2023-06-14T05:03:33;4.53;;;3.20;;
44098;SDS011;29762;50.086;14.364;2023-06-14T05:08:54;3.75;;;2.85;;
44098;SDS011;29762;50.086;14.364;2023-06-14T05:14:14;3.55;;;3.25;;
44098;SDS011;29762;50.086;14.364;2023-06-14T05:19:34;4.53;;;3.60;;
44098;SDS011;29762;50.086;14.364;2023-06-14T05:24:54;3.58;;;3.20;;
44098;SDS011;29762;50.086;14.364;2023-06-14T05:30:14;5.45;;;3.20;;
44098;SDS011;29762;50.086;14.364;2023-06-14T05:35:34;3.50;;;3.20;;
44098;SDS011;29762;50.086;14.364;2023-06-14T05:40:54;4.43;;;3.17;;
44098;SDS011;29762;50.086;14.364;2023-06-14T05:46:14;4.60;;;3.30;;
44098;SDS011;29762;50.086;14.364;2023-06-14T05:51:34;3.63;;;3.17;;
44098;SDS011;29762;50.086;14.364;2023-06-14T05:56:54;4.72;;;3.22;;
44098;SDS011;29762;50.086;14.364;2023-06-14T06:02:13;4.93;;;3.08;;
44098;SDS011;29762;50.086;14.364;2023-06-14T06:07:33;5.07;;;3.50;;
44098;SDS011;29762;50.086;14.364;2023-06-14T06:12:53;4.68;;;3.25;;
44098;SDS011;29762;50.086;14.364;2023-06-14T06:18:13;3.30;;;3.00;;
44098;SDS011;29762;50.086;14.364;2023-06-14T06:23:33;3.53;;;3.03;;
44098;SDS011;29762;50.086;14.364;2023-06-14T06:28:52;3.45;;;3.15;;
44098;SDS011;29762;50.086;14.364;2023-06-14T06:34:12;4.60;;;2.97;;
44098;SDS011;29762;50.086;14.364;2023-06-14T06:39:31;3.72;;;2.70;;
44098;SDS011;29762;50.086;14.364;2023-06-14T06:44:50;4.35;;;2.63;;
44098;SDS011;29762;50.086;14.364;2023-06-14T06:50:10;6.60;;;3.10;;
44098;SDS011;29762;50.086;14.364;2023-06-14T06:55:30;5.57;;;3.40;;
44098;SDS011;29762;50.086;14.364;2023-06-14T07:00:50;4.25;;;3.33;;
44098;SDS011;29762;50.086;14.364;2023-06-14T07:06:09;4.40;;;3.42;;
44098;SDS011;29762;50.086;14.364;2023-06-14T07:11:29;6.32;;;3.58;;
44098;SDS011;29762;50.086;14.364;2023-06-14T07:16:49;6.32;;;3.38;;
44098;SDS011;29762;50.086;14.364;2023-06-14T07:22:09;4.22;;;3.70;;
44098;SDS011;29762;50.086;14.364;2023-06-14T07:27:28;4.15;;;3.50;;
44098;SDS011;29762;50.086;14.364;2023-06-14T07:32:48;4.65;;;3.35;;
44098;SDS011;29762;50.086;14.364;2023-06-14T07:38:08;3.53;;;2.80;;
44098;SDS011;29762;50.086;14.364;2023-06-14T07:43:27;3.75;;;3.40;;
44098;SDS011;29762;50.086;14.364;2023-06-14T07:48:47;3.80;;;3.00;;
44098;SDS011;29762;50.086;14.364;2023-06-14T07:54:07;5.80;;;3.15;;
44098;SDS011;29762;50.086;14.364;2023-06-14T07:59:27;2.88;;;2.63;;
44098;SDS011;29762;50.086;14.364;2023-06-14T08:04:47;7.97;;;2.72;;
44098;SDS011;29762;50.086;14.364;2023-06-14T08:10:07;5.40;;;3.00;;
44098;SDS011;29762;50.086;14.364;2023-06-14T08:15:27;3.92;;;2.90;;
44098;SDS011;29762;50.086;14.364;2023-06-14T08:20:46;4.97;;;3.10;;
44098;SDS011;29762;50.086;14.364;2023-06-14T08:26:06;3.00;;;2.70;;
44098;SDS011;29762;50.086;14.364;2023-06-14T08:31:26;3.53;;;2.85;;
44098;SDS011;29762;50.086;14.364;2023-06-14T08:36:46;3.13;;;2.70;;
44098;SDS011;29762;50.086;14.364;2023-06-14T08:42:06;3.30;;;2.97;;
44098;SDS011;29762;50.086;14.364;2023-06-14T08:47:27;13.70;;;6.78;;
44098;SDS011;29762;50.086;14.364;2023-06-14T08:52:48;8.57;;;4.55;;
44098;SDS011;29762;50.086;14.364;2023-06-14T08:58:13;7.30;;;3.40;;
44098;SDS011;29762;50.086;14.364;2023-06-14T09:03:33;8.65;;;4.10;;
44098;SDS011;29762;50.086;14.364;2023-06-14T09:08:54;8.27;;;3.40;;
44098;SDS011;29762;50.086;14.364;2023-06-14T09:14:17;5.78;;;3.05;;
44098;SDS011;29762;50.086;14.364;2023-06-14T09:19:37;4.20;;;2.60;;
44098;SDS011;29762;50.086;14.364;2023-06-14T09:24:57;3.22;;;2.92;;
44098;SDS011;29762;50.086;14.364;2023-06-14T09:30:19;5.35;;;2.80;;
44098;SDS011;29762;50.086;14.364;2023-06-14T09:35:39;5.82;;;2.75;;
44098;SDS011;29762;50.086;14.364;2023-06-14T09:40:59;3.70;;;2.85;;
44098;SDS011;29762;50.086;14.364;2023-06-14T09:46:19;4.13;;;2.63;;
44098;SDS011;29762;50.086;14.364;2023-06-14T09:51:42;4.05;;;2.90;;
44098;SDS011;29762;50.086;14.364;2023-06-14T09:57:03;4.10;;;3.10;;
44098;SDS011;29762;50.086;14.364;2023-06-14T10:02:36;6.03;;;3.10;;
44098;SDS011;29762;50.086;14.364;2023-06-14T10:08:04;4.03;;;3.00;;
44098;SDS011;29762;50.086;14.364;2023-06-14T10:13:26;3.38;;;3.08;;
44098;SDS011;29762;50.086;14.364;2023-06-14T10:18:49;4.78;;;3.15;;
44098;SDS011;29762;50.086;14.364;2023-06-14T10:24:12;4.85;;;3.10;;
44098;SDS011;29762;50.086;14.364;2023-06-14T10:29:33;3.20;;;2.90;;
44098;SDS011;29762;50.086;14.364;2023-06-14T10:34:56;3.80;;;3.38;;
44098;SDS011;29762;50.086;14.364;2023-06-14T10:40:32;4.35;;;3.40;;
44098;SDS011;29762;50.086;14.364;2023-06-14T10:46:12;3.55;;;3.25;;
44098;SDS011;29762;50.086;14.364;2023-06-14T10:51:41;4.88;;;3.42;;
44098;SDS011;29762;50.086;14.364;2023-06-14T10:57:06;3.50;;;3.17;;
44098;SDS011;29762;50.086;14.364;2023-06-14T11:13:52;3.70;;;3.40;;
44098;SDS011;29762;50.086;14.364;2023-06-14T11:19:12;3.50;;;3.20;;
44098;SDS011;29762;50.086;14.364;2023-06-14T11:24:32;3.72;;;3.35;;
44098;SDS011;29762;50.086;14.364;2023-06-14T11:29:52;3.92;;;3.10;;
44098;SDS011;29762;50.086;14.364;2023-06-14T11:35:11;3.22;;;2.75;;
44098;SDS011;29762;50.086;14.364;2023-06-14T11:40:31;5.05;;;3.22;;
44098;SDS011;29762;50.086;14.364;2023-06-14T11:45:51;4.55;;;3.00;;
44098;SDS011;29762;50.086;14.364;2023-06-14T11:51:11;4.07;;;3.13;;
44098;SDS011;29762;50.086;14.364;2023-06-14T11:56:31;4.13;;;3.05;;
44098;SDS011;29762;50.086;14.364;2023-06-14T12:01:54;4.60;;;3.03;;
44098;SDS011;29762;50.086;14.364;2023-06-14T12:07:15;5.78;;;3.13;;
44098;SDS011;29762;50.086;14.364;2023-06-14T12:12:37;6.18;;;3.45;;
44098;SDS011;29762;50.086;14.364;2023-06-14T12:17:57;11.43;;;4.57;;
44098;SDS011;29762;50.086;14.364;2023-06-14T12:23:17;9.05;;;4.15;;
44098;SDS011;29762;50.086;14.364;2023-06-14T12:28:37;12.15;;;4.55;;
44098;SDS011;29762;50.086;14.364;2023-06-14T12:33:56;9.82;;;4.68;;
44098;SDS011;29762;50.086;14.364;2023-06-14T12:39:16;11.63;;;4.72;;
44098;SDS011;29762;50.086;14.364;2023-06-14T12:44:36;8.77;;;4.25;;
44098;SDS011;29762;50.086;14.364;2023-06-14T12:49:59;10.90;;;4.20;;
44098;SDS011;29762;50.086;14.364;2023-06-14T12:55:19;7.15;;;3.83;;
44098;SDS011;29762;50.086;14.364;2023-06-14T13:00:39;9.10;;;4.07;;
44098;SDS011;29762;50.086;14.364;2023-06-14T13:05:59;7.28;;;3.97;;
44098;SDS011;29762;50.086;14.364;2023-06-14T13:11:19;7.70;;;4.07;;
44098;SDS011;29762;50.086;14.364;2023-06-14T13:16:38;8.85;;;5.00;;
44098;SDS011;29762;50.086;14.364;2023-06-14T13:21:58;10.63;;;5.10;;
44098;SDS011;29762;50.086;14.364;2023-06-14T13:27:17;6.40;;;4.13;;
44098;SDS011;29762;50.086;14.364;2023-06-14T13:32:37;9.82;;;4.50;;
44098;SDS011;29762;50.086;14.364;2023-06-14T13:37:57;7.75;;;4.35;;
44098;SDS011;29762;50.086;14.364;2023-06-14T13:43:16;7.68;;;3.65;;
44098;SDS011;29762;50.086;14.364;2023-06-14T13:48:36;6.88;;;3.55;;
44098;SDS011;29762;50.086;14.364;2023-06-14T13:53:55;5.75;;;3.60;;
44098;SDS011;29762;50.086;14.364;2023-06-14T13:59:15;5.22;;;3.38;;
44098;SDS011;29762;50.086;14.364;2023-06-14T14:04:35;6.78;;;3.85;;
44098;SDS011;29762;50.086;14.364;2023-06-14T14:09:55;8.40;;;3.55;;
44098;SDS011;29762;50.086;14.364;2023-06-14T14:15:16;6.55;;;2.75;;
44098;SDS011;29762;50.086;14.364;2023-06-14T14:20:36;5.03;;;2.80;;
44098;SDS011;29762;50.086;14.364;2023-06-14T14:25:56;7.68;;;3.75;;
44098;SDS011;29762;50.086;14.364;2023-06-14T14:31:16;4.30;;;3.10;;
44098;SDS011;29762;50.086;14.364;2023-06-14T14:36:35;4.88;;;3.08;;
44098;SDS011;29762;50.086;14.364;2023-06-14T14:41:56;6.55;;;3.88;;
44098;SDS011;29762;50.086;14.364;2023-06-14T14:47:16;5.78;;;3.10;;
44098;SDS011;29762;50.086;14.364;2023-06-14T14:52:35;4.65;;;3.00;;
44098;SDS011;29762;50.086;14.364;2023-06-14T14:57:55;5.75;;;3.30;;
44098;SDS011;29762;50.086;14.364;2023-06-14T15:03:14;5.15;;;3.22;;
44098;SDS011;29762;50.086;14.364;2023-06-14T15:08:34;5.07;;;3.17;;
44098;SDS011;29762;50.086;14.364;2023-06-14T15:13:54;5.03;;;3.42;;
44098;SDS011;29762;50.086;14.364;2023-06-14T15:19:14;5.35;;;3.15;;
44098;SDS011;29762;50.086;14.364;2023-06-14T15:24:33;4.95;;;2.97;;
44098;SDS011;29762;50.086;14.364;2023-06-14T15:29:54;5.15;;;2.92;;
44098;SDS011;29762;50.086;14.364;2023-06-14T15:35:14;6.30;;;3.15;;
44098;SDS011;29762;50.086;14.364;2023-06-14T15:40:35;5.88;;;3.30;;
44098;SDS011;29762;50.086;14.364;2023-06-14T15:45:55;4.63;;;2.90;;
44098;SDS011;29762;50.086;14.364;2023-06-14T15:51:15;4.18;;;3.10;;
44098;SDS011;29762;50.086;14.364;2023-06-14T15:56:34;5.07;;;2.70;;
44098;SDS011;29762;50.086;14.364;2023-06-14T16:01:54;4.90;;;2.90;;
44098;SDS011;29762;50.086;14.364;2023-06-14T16:07:14;6.60;;;3.10;;
44098;SDS011;29762;50.086;14.364;2023-06-14T16:12:34;5.45;;;2.97;;
44098;SDS011;29762;50.086;14.364;2023-06-14T16:17:54;5.25;;;2.95;;
44098;SDS011;29762;50.086;14.364;2023-06-14T16:23:14;3.63;;;2.90;;
44098;SDS011;29762;50.086;14.364;2023-06-14T16:28:33;3.60;;;2.33;;
44098;SDS011;29762;50.086;14.364;2023-06-14T16:33:53;3.67;;;2.75;;
44098;SDS011;29762;50.086;14.364;2023-06-14T16:39:15;3.15;;;2.63;;
44098;SDS011;29762;50.086;14.364;2023-06-14T16:44:36;3.17;;;2.65;;
44098;SDS011;29762;50.086;14.364;2023-06-14T16:49:55;3.15;;;2.75;;
44098;SDS011;29762;50.086;14.364;2023-06-14T16:55:14;4.35;;;2.90;;
44098;SDS011;29762;50.086;14.364;2023-06-14T17:00:34;3.50;;;2.63;;
44098;SDS011;29762;50.086;14.364;2023-06-14T17:05:55;4.45;;;2.92;;
44098;SDS011;29762;50.086;14.364;2023-06-14T17:11:17;3.17;;;2.50;;
44098;SDS011;29762;50.086;14.364;2023-06-14T17:16:38;3.40;;;3.10;;
44098;SDS011;29762;50.086;14.364;2023-06-14T17:21:57;5.07;;;3.53;;
44098;SDS011;29762;50.086;14.364;2023-06-14T17:27:17;4.10;;;3.00;;
44098;SDS011;29762;50.086;14.364;2023-06-14T17:32:37;4.63;;;3.05;;
44098;SDS011;29762;50.086;14.364;2023-06-14T17:37:56;2.90;;;2.60;;
44098;SDS011;29762;50.086;14.364;2023-06-14T17:43:16;4.10;;;2.75;;
44098;SDS011;29762;50.086;14.364;2023-06-14T17:48:36;6.80;;;3.28;;
44098;SDS011;29762;50.086;14.364;2023-06-14T17:53:56;4.35;;;2.65;;
44098;SDS011;29762;50.086;14.364;2023-06-14T17:59:16;9.98;;;3.08;;
44098;SDS011;29762;50.086;14.364;2023-06-14T18:04:35;5.45;;;3.58;;
44098;SDS011;29762;50.086;14.364;2023-06-14T18:09:55;3.67;;;3.08;;
44098;SDS011;29762;50.086;14.364;2023-06-14T18:15:14;6.75;;;3.10;;
44098;SDS011;29762;50.086;14.364;2023-06-14T18:20:34;3.75;;;2.78;;
44098;SDS011;29762;50.086;14.364;2023-06-14T18:25:54;3.80;;;3.20;;
44098;SDS011;29762;50.086;14.364;2023-06-14T18:31:14;4.00;;;2.92;;
44098;SDS011;29762;50.086;14.364;2023-06-14T18:36:34;4.65;;;3.47;;
44098;SDS011;29762;50.086;14.364;2023-06-14T18:41:56;3.20;;;2.90;;
44098;SDS011;29762;50.086;14.364;2023-06-14T18:47:16;3.80;;;2.72;;
44098;SDS011;29762;50.086;14.364;2023-06-14T18:52:36;3.20;;;2.67;;
44098;SDS011;29762;50.086;14.364;2023-06-14T18:57:55;7.63;;;2.90;;
44098;SDS011;29762;50.086;14.364;2023-06-14T19:03:15;3.35;;;2.75;;
44098;SDS011;29762;50.086;14.364;2023-06-14T19:08:35;4.18;;;3.03;;
44098;SDS011;29762;50.086;14.364;2023-06-14T19:13:54;5.35;;;3.20;;
44098;SDS011;29762;50.086;14.364;2023-06-14T19:19:14;5.53;;;3.33;;
44098;SDS011;29762;50.086;14.364;2023-06-14T19:24:34;3.65;;;3.00;;
44098;SDS011;29762;50.086;14.364;2023-06-14T19:29:53;3.00;;;2.80;;
44098;SDS011;29762;50.086;14.364;2023-06-14T19:35:13;5.30;;;3.15;;
44098;SDS011;29762;50.086;14.364;2023-06-14T19:40:33;3.33;;;2.78;;
44098;SDS011;29762;50.086;14.364;2023-06-14T19:45:52;5.47;;;2.83;;
44098;SDS011;29762;50.086;14.364;2023-06-14T19:51:12;3.67;;;3.08;;
44098;SDS011;29762;50.086;14.364;2023-06-14T19:56:31;4.53;;;3.05;;
44098;SDS011;29762;50.086;14.364;2023-06-14T20:01:50;3.50;;;3.20;;
44098;SDS011;29762;50.086;14.364;2023-06-14T20:07:10;3.15;;;2.85;;
44098;SDS011;29762;50.086;14.364;2023-06-14T20:12:29;3.45;;;2.90;;
44098;SDS011;29762;50.086;14.364;2023-06-14T20:17:49;3.60;;;2.80;;
44098;SDS011;29762;50.086;14.364;2023-06-14T20:23:09;3.40;;;3.10;;
44098;SDS011;29762;50.086;14.364;2023-06-14T20:28:29;1.98;;;1.88;;
44098;SDS011;29762;50.086;14.364;2023-06-14T20:33:50;3.15;;;2.85;;
44098;SDS011;29762;50.086;14.364;2023-06-14T20:39:10;4.45;;;3.00;;
44098;SDS011;29762;50.086;14.364;2023-06-14T20:44:29;3.05;;;2.85;;
44098;SDS011;29762;50.086;14.364;2023-06-14T20:49:49;3.40;;;2.83;;
44098;SDS011;29762;50.086;14.364;2023-06-14T20:55:09;3.40;;;3.10;;
44098;SDS011;29762;50.086;14.364;2023-06-14T21:00:28;2.88;;;2.67;;
44098;SDS011;29762;50.086;14.364;2023-06-14T21:05:48;3.20;;;2.90;;
44098;SDS011;29762;50.086;14.364;2023-06-14T21:11:08;3.00;;;2.70;;
44098;SDS011;29762;50.086;14.364;2023-06-14T21:16:28;3.08;;;2.78;;
44098;SDS011;29762;50.086;14.364;2023-06-14T21:21:47;3.13;;;2.83;;
44098;SDS011;29762;50.086;14.364;2023-06-14T21:27:06;2.97;;;2.72;;
44098;SDS011;29762;50.086;14.364;2023-06-14T21:32:26;2.65;;;2.45;;
44098;SDS011;29762;50.086;14.364;2023-06-14T21:37:46;3.50;;;2.88;;
44098;SDS011;29762;50.086;14.364;2023-06-14T21:43:05;3.28;;;2.97;;
44098;SDS011;29762;50.086;14.364;2023-06-14T21:48:24;2.80;;;2.60;;
44098;SDS011;29762;50.086;14.364;2023-06-14T21:53:44;3.20;;;2.90;;
44098;SDS011;29762;50.086;14.364;2023-06-14T21:59:06;2.90;;;2.70;;
44098;SDS011;29762;50.086;14.364;2023-06-14T22:04:26;2.75;;;2.55;;
44098;SDS011;29762;50.086;14.364;2023-06-14T22:09:46;3.20;;;2.90;;
44098;SDS011;29762;50.086;14.364;2023-06-14T22:15:07;2.90;;;2.70;;
44098;SDS011;29762;50.086;14.364;2023-06-14T22:20:27;3.15;;;2.85;;
44098;SDS011;29762;50.086;14.364;2023-06-14T22:25:48;2.95;;;2.60;;
44098;SDS011;29762;50.086;14.364;2023-06-14T22:31:07;2.83;;;2.53;;
44098;SDS011;29762;50.086;14.364;2023-06-14T22:36:29;2.97;;;2.45;;
44098;SDS011;29762;50.086;14.364;2023-06-14T22:41:48;2.88;;;2.60;;
44098;SDS011;29762;50.086;14.364;2023-06-14T22:47:08;2.50;;;2.30;;
44098;SDS011;29762;50.086;14.364;2023-06-14T22:52:29;2.55;;;2.35;;
44098;SDS011;29762;50.086;14.364;2023-06-14T22:57:51;2.78;;;2.42;;
44098;SDS011;29762;50.086;14.364;2023-06-14T23:03:11;2.95;;;2.65;;
44098;SDS011;29762;50.086;14.364;2023-06-14T23:08:30;2.72;;;2.53;;
44098;SDS011;29762;50.086;14.364;2023-06-14T23:13:51;3.03;;;2.75;;
44098;SDS011;29762;50.086;14.364;2023-06-14T23:19:12;3.08;;;2.40;;
44098;SDS011;29762;50.086;14.364;2023-06-14T23:24:33;2.80;;;2.60;;
44098;SDS011;29762;50.086;14.364;2023-06-14T23:29:56;2.65;;;2.45;;
44098;SDS011;29762;50.086;14.364;2023-06-14T23:35:17;2.72;;;2.40;;
44098;SDS011;29762;50.086;14.364;2023-06-14T23:40:38;2.63;;;2.42;;
44098;SDS011;29762;50.086;14.364;2023-06-14T23:45:57;2.55;;;2.35;;
44098;SDS011;29762;50.086;14.364;2023-06-14T23:51:18;2.70;;;2.50;;
44098;SDS011;29762;50.086;14.364;2023-06-14T23:56:41;2.50;;;2.30;;
